sensor_id;sensor_type;location;lat;lon;timestamp;pressure;altitude;pressure_sealevel;temperature;humidity
64739;BME280;51175;51.186;0.276;2023-05-20T00:00:11;102293.97;;;16.95;50.41
64739;BME280;51175;51.186;0.276;2023-05-20T00:00:44;102295.06;;;16.94;50.47
64739;BME280;51175;51.186;0.276;2023-05-20T00:01:15;102291.56;;;16.93;50.33
64739;BME280;51175;51.186;0.276;2023-05-20T00:01:45;102289.72;;;16.94;50.14
64739;BME280;51175;51.186;0.276;2023-05-20T00:02:16;102290.75;;;16.93;50.27
64739;BME280;51175;51.186;0.276;2023-05-20T00:02:46;102295.31;;;16.92;50.50
64739;BME280;51175;51.186;0.276;2023-05-20T00:03:17;102292.66;;;16.92;50.38
64739;BME280;51175;51.186;0.276;2023-05-20T00:03:49;102285.69;;;16.91;50.52
64739;BME280;51175;51.186;0.276;2023-05-20T00:04:19;102291.84;;;16.92;50.49
64739;BME280;51175;51.186;0.276;2023-05-20T00:04:50;102287.56;;;16.91;50.71
64739;BME280;51175;51.186;0.276;2023-05-20T00:05:20;102298.25;;;16.91;50.61
64739;BME280;51175;51.186;0.276;2023-05-20T00:05:51;102289.41;;;16.90;50.45
64739;BME280;51175;51.186;0.276;2023-05-20T00:06:22;102293.94;;;16.90;50.51
64739;BME280;51175;51.186;0.276;2023-05-20T00:06:52;102295.84;;;16.89;50.76
64739;BME280;51175;51.186;0.276;2023-05-20T00:07:23;102298.50;;;16.89;50.67
64739;BME280;51175;51.186;0.276;2023-05-20T00:07:54;102295.00;;;16.88;50.48
64739;BME280;51175;51.186;0.276;2023-05-20T00:08:24;102296.09;;;16.87;50.54
64739;BME280;51175;51.186;0.276;2023-05-20T00:08:55;102290.75;;;16.87;50.48
64739;BME280;51175;51.186;0.276;2023-05-20T00:09:25;102301.44;;;16.87;50.61
64739;BME280;51175;51.186;0.276;2023-05-20T00:09:56;102294.47;;;16.86;50.70
64739;BME280;51175;51.186;0.276;2023-05-20T00:10:26;102297.94;;;16.87;50.50
64739;BME280;51175;51.186;0.276;2023-05-20T00:10:57;102302.47;;;16.86;50.59
64739;BME280;51175;51.186;0.276;2023-05-20T00:11:27;102296.34;;;16.86;50.48
64739;BME280;51175;51.186;0.276;2023-05-20T00:11:57;102303.53;;;16.85;50.69
64739;BME280;51175;51.186;0.276;2023-05-20T00:12:28;102304.09;;;16.87;50.59
64739;BME280;51175;51.186;0.276;2023-05-20T00:12:58;102295.53;;;16.85;50.85
64739;BME280;51175;51.186;0.276;2023-05-20T00:13:29;102299.00;;;16.86;50.50
64739;BME280;51175;51.186;0.276;2023-05-20T00:13:59;102304.34;;;16.86;50.86
64739;BME280;51175;51.186;0.276;2023-05-20T00:14:30;102296.59;;;16.84;50.72
64739;BME280;51175;51.186;0.276;2023-05-20T00:15:00;102295.78;;;16.84;50.65
64739;BME280;51175;51.186;0.276;2023-05-20T00:15:32;102301.13;;;16.84;50.71
64739;BME280;51175;51.186;0.276;2023-05-20T00:16:02;102301.94;;;16.84;50.76
64739;BME280;51175;51.186;0.276;2023-05-20T00:16:33;102307.53;;;16.83;50.65
64739;BME280;51175;51.186;0.276;2023-05-20T00:17:04;102296.88;;;16.83;50.84
64739;BME280;51175;51.186;0.276;2023-05-20T00:17:34;102298.72;;;16.82;50.58
64739;BME280;51175;51.186;0.276;2023-05-20T00:18:05;102296.06;;;16.82;50.86
64739;BME280;51175;51.186;0.276;2023-05-20T00:18:35;102300.56;;;16.82;51.05
64739;BME280;51175;51.186;0.276;2023-05-20T00:19:05;102294.19;;;16.83;51.05
64739;BME280;51175;51.186;0.276;2023-05-20T00:19:36;102291.78;;;16.81;50.69
64739;BME280;51175;51.186;0.276;2023-05-20T00:20:07;102294.44;;;16.81;50.87
64739;BME280;51175;51.186;0.276;2023-05-20T00:20:37;102295.22;;;16.82;51.12
64739;BME280;51175;51.186;0.276;2023-05-20T00:21:08;102291.78;;;16.81;50.86
64739;BME280;51175;51.186;0.276;2023-05-20T00:21:38;102290.16;;;16.80;50.85
64739;BME280;51175;51.186;0.276;2023-05-20T00:22:09;102292.03;;;16.80;50.79
64739;BME280;51175;51.186;0.276;2023-05-20T00:22:39;102295.50;;;16.80;50.97
64739;BME280;51175;51.186;0.276;2023-05-20T00:23:10;102292.81;;;16.80;51.15
64739;BME280;51175;51.186;0.276;2023-05-20T00:23:40;102297.38;;;16.80;51.05
64739;BME280;51175;51.186;0.276;2023-05-20T00:24:11;102296.56;;;16.79;50.82
64739;BME280;51175;51.186;0.276;2023-05-20T00:24:41;102291.22;;;16.79;50.99
64739;BME280;51175;51.186;0.276;2023-05-20T00:25:12;102298.41;;;16.79;51.00
64739;BME280;51175;51.186;0.276;2023-05-20T00:25:45;102297.63;;;16.78;50.79
64739;BME280;51175;51.186;0.276;2023-05-20T00:26:15;102296.81;;;16.78;50.96
64739;BME280;51175;51.186;0.276;2023-05-20T00:26:46;102299.50;;;16.78;50.89
64739;BME280;51175;51.186;0.276;2023-05-20T00:27:16;102294.97;;;16.78;51.16
64739;BME280;51175;51.186;0.276;2023-05-20T00:27:47;102293.34;;;16.77;51.20
64739;BME280;51175;51.186;0.276;2023-05-20T00:28:17;102292.81;;;16.75;51.10
64739;BME280;51175;51.186;0.276;2023-05-20T00:28:48;102294.41;;;16.76;51.01
64739;BME280;51175;51.186;0.276;2023-05-20T00:29:20;102297.09;;;16.76;51.13
64739;BME280;51175;51.186;0.276;2023-05-20T00:29:51;102306.16;;;16.75;51.19
64739;BME280;51175;51.186;0.276;2023-05-20T00:30:21;102302.66;;;16.74;51.35
64739;BME280;51175;51.186;0.276;2023-05-20T00:30:53;102298.41;;;16.73;51.25
64739;BME280;51175;51.186;0.276;2023-05-20T00:31:24;102295.75;;;16.73;51.32
64739;BME280;51175;51.186;0.276;2023-05-20T00:31:54;102298.41;;;16.73;51.28
64739;BME280;51175;51.186;0.276;2023-05-20T00:32:24;102296.53;;;16.74;51.38
64739;BME280;51175;51.186;0.276;2023-05-20T00:32:55;102294.13;;;16.72;51.33
64739;BME280;51175;51.186;0.276;2023-05-20T00:33:25;102293.34;;;16.72;51.18
64739;BME280;51175;51.186;0.276;2023-05-20T00:33:56;102296.78;;;16.72;51.21
64739;BME280;51175;51.186;0.276;2023-05-20T00:34:26;102296.78;;;16.72;51.44
64739;BME280;51175;51.186;0.276;2023-05-20T00:34:57;102288.78;;;16.72;51.34
64739;BME280;51175;51.186;0.276;2023-05-20T00:35:28;102292.50;;;16.71;51.59
64739;BME280;51175;51.186;0.276;2023-05-20T00:35:58;102295.19;;;16.71;51.43
64739;BME280;51175;51.186;0.276;2023-05-20T00:36:28;102290.66;;;16.72;51.32
64739;BME280;51175;51.186;0.276;2023-05-20T00:37:00;102297.84;;;16.71;51.68
64739;BME280;51175;51.186;0.276;2023-05-20T00:37:30;102295.19;;;16.71;51.81
64739;BME280;51175;51.186;0.276;2023-05-20T00:38:01;102293.59;;;16.70;51.29
64739;BME280;51175;51.186;0.276;2023-05-20T00:38:32;102297.03;;;16.71;51.65
64739;BME280;51175;51.186;0.276;2023-05-20T00:39:03;102293.59;;;16.70;51.45
64739;BME280;51175;51.186;0.276;2023-05-20T00:39:33;102293.59;;;16.70;51.77
64739;BME280;51175;51.186;0.276;2023-05-20T00:40:04;102297.28;;;16.69;51.58
64739;BME280;51175;51.186;0.276;2023-05-20T00:40:34;102295.44;;;16.70;51.83
64739;BME280;51175;51.186;0.276;2023-05-20T00:41:05;102297.28;;;16.69;51.54
64739;BME280;51175;51.186;0.276;2023-05-20T00:41:35;102299.19;;;16.69;51.43
64739;BME280;51175;51.186;0.276;2023-05-20T00:42:06;102297.56;;;16.68;51.92
64739;BME280;51175;51.186;0.276;2023-05-20T00:42:36;102300.22;;;16.68;51.54
64739;BME280;51175;51.186;0.276;2023-05-20T00:43:08;102294.09;;;16.67;51.63
64739;BME280;51175;51.186;0.276;2023-05-20T00:43:39;102288.78;;;16.67;51.77
64739;BME280;51175;51.186;0.276;2023-05-20T00:44:10;102294.09;;;16.67;51.59
64739;BME280;51175;51.186;0.276;2023-05-20T00:44:41;102291.44;;;16.67;51.53
64739;BME280;51175;51.186;0.276;2023-05-20T00:45:11;102294.09;;;16.67;51.58
64739;BME280;51175;51.186;0.276;2023-05-20T00:45:41;102293.28;;;16.67;51.81
64739;BME280;51175;51.186;0.276;2023-05-20T00:46:12;102291.66;;;16.66;51.64
64739;BME280;51175;51.186;0.276;2023-05-20T00:46:43;102297.00;;;16.66;51.70
64739;BME280;51175;51.186;0.276;2023-05-20T00:47:15;102292.47;;;16.66;51.96
64739;BME280;51175;51.186;0.276;2023-05-20T00:47:46;102292.47;;;16.66;51.70
64739;BME280;51175;51.186;0.276;2023-05-20T00:48:17;102297.81;;;16.66;51.78
64739;BME280;51175;51.186;0.276;2023-05-20T00:48:48;102293.53;;;16.65;51.91
64739;BME280;51175;51.186;0.276;2023-05-20T00:49:19;102296.22;;;16.65;52.00
64739;BME280;51175;51.186;0.276;2023-05-20T00:49:50;102297.00;;;16.66;51.77
64739;BME280;51175;51.186;0.276;2023-05-20T00:50:21;102290.88;;;16.65;51.78
64739;BME280;51175;51.186;0.276;2023-05-20T00:50:52;102293.53;;;16.65;51.62
64739;BME280;51175;51.186;0.276;2023-05-20T00:51:22;102294.59;;;16.64;51.74
64739;BME280;51175;51.186;0.276;2023-05-20T00:51:53;102292.72;;;16.65;51.81
64739;BME280;51175;51.186;0.276;2023-05-20T00:52:24;102293.81;;;16.63;51.70
64739;BME280;51175;51.186;0.276;2023-05-20T00:52:54;102293.81;;;16.63;51.80
64739;BME280;51175;51.186;0.276;2023-05-20T00:53:25;102291.13;;;16.63;51.97
64739;BME280;51175;51.186;0.276;2023-05-20T00:53:56;102289.50;;;16.62;51.82
64739;BME280;51175;51.186;0.276;2023-05-20T00:54:27;102293.81;;;16.63;52.04
64739;BME280;51175;51.186;0.276;2023-05-20T00:54:58;102292.19;;;16.62;51.69
64739;BME280;51175;51.186;0.276;2023-05-20T00:55:29;102286.84;;;16.62;51.79
64739;BME280;51175;51.186;0.276;2023-05-20T00:55:59;102289.50;;;16.62;51.88
64739;BME280;51175;51.186;0.276;2023-05-20T00:56:30;102289.50;;;16.62;52.10
64739;BME280;51175;51.186;0.276;2023-05-20T00:57:03;102288.72;;;16.62;51.92
64739;BME280;51175;51.186;0.276;2023-05-20T00:57:35;102300.44;;;16.61;51.92
64739;BME280;51175;51.186;0.276;2023-05-20T00:58:06;102289.75;;;16.61;51.74
64739;BME280;51175;51.186;0.276;2023-05-20T00:58:36;102284.44;;;16.61;51.94
64739;BME280;51175;51.186;0.276;2023-05-20T00:59:07;102286.31;;;16.60;51.99
64739;BME280;51175;51.186;0.276;2023-05-20T00:59:38;102283.66;;;16.60;52.05
64739;BME280;51175;51.186;0.276;2023-05-20T01:00:09;102292.69;;;16.59;51.99
64739;BME280;51175;51.186;0.276;2023-05-20T01:00:40;102293.50;;;16.60;51.99
64739;BME280;51175;51.186;0.276;2023-05-20T01:01:11;102285.50;;;16.60;51.97
64739;BME280;51175;51.186;0.276;2023-05-20T01:01:42;102284.69;;;16.59;52.06
64739;BME280;51175;51.186;0.276;2023-05-20T01:02:13;102279.59;;;16.58;51.77
64739;BME280;51175;51.186;0.276;2023-05-20T01:02:43;102292.16;;;16.57;51.96
64739;BME280;51175;51.186;0.276;2023-05-20T01:03:14;102287.34;;;16.59;52.11
64739;BME280;51175;51.186;0.276;2023-05-20T01:03:45;102278.81;;;16.57;52.03
64739;BME280;51175;51.186;0.276;2023-05-20T01:04:15;102284.16;;;16.57;52.10
64739;BME280;51175;51.186;0.276;2023-05-20T01:04:46;102292.16;;;16.57;51.94
64739;BME280;51175;51.186;0.276;2023-05-20T01:05:17;102281.75;;;16.56;52.02
64739;BME280;51175;51.186;0.276;2023-05-20T01:05:47;102281.75;;;16.56;52.01
64739;BME280;51175;51.186;0.276;2023-05-20T01:06:18;102279.09;;;16.56;52.09
64739;BME280;51175;51.186;0.276;2023-05-20T01:06:48;102284.41;;;16.56;52.11
64739;BME280;51175;51.186;0.276;2023-05-20T01:07:19;102277.44;;;16.55;52.05
64739;BME280;51175;51.186;0.276;2023-05-20T01:07:49;102281.75;;;16.56;51.92
64739;BME280;51175;51.186;0.276;2023-05-20T01:08:24;102280.94;;;16.55;51.93
64739;BME280;51175;51.186;0.276;2023-05-20T01:08:55;102282.00;;;16.54;52.01
64739;BME280;51175;51.186;0.276;2023-05-20T01:09:25;102285.44;;;16.55;52.21
64739;BME280;51175;51.186;0.276;2023-05-20T01:09:56;102282.00;;;16.54;52.07
64739;BME280;51175;51.186;0.276;2023-05-20T01:10:27;102272.38;;;16.53;51.97
64739;BME280;51175;51.186;0.276;2023-05-20T01:11:37;102281.19;;;16.54;52.27
64739;BME280;51175;51.186;0.276;2023-05-20T01:12:53;102276.13;;;16.52;52.03
64739;BME280;51175;51.186;0.276;2023-05-20T01:13:29;102286.78;;;16.52;52.05
64739;BME280;51175;51.186;0.276;2023-05-20T01:14:06;102275.31;;;16.51;52.34
64739;BME280;51175;51.186;0.276;2023-05-20T01:15:39;102272.09;;;16.49;52.08
64739;BME280;51175;51.186;0.276;2023-05-20T01:16:10;102271.28;;;16.49;52.24
64739;BME280;51175;51.186;0.276;2023-05-20T01:16:41;102279.28;;;16.49;52.31
64739;BME280;51175;51.186;0.276;2023-05-20T01:17:14;102268.88;;;16.47;52.36
64739;BME280;51175;51.186;0.276;2023-05-20T01:17:50;102274.22;;;16.47;52.32
64739;BME280;51175;51.186;0.276;2023-05-20T01:18:22;102269.13;;;16.46;52.10
64739;BME280;51175;51.186;0.276;2023-05-20T01:18:55;102270.72;;;16.47;52.56
64739;BME280;51175;51.186;0.276;2023-05-20T01:19:34;102275.28;;;16.46;52.46
64739;BME280;51175;51.186;0.276;2023-05-20T01:20:08;102268.06;;;16.47;52.51
64739;BME280;51175;51.186;0.276;2023-05-20T01:20:39;102272.88;;;16.45;52.58
64739;BME280;51175;51.186;0.276;2023-05-20T01:21:11;102270.22;;;16.45;52.36
64739;BME280;51175;51.186;0.276;2023-05-20T01:21:44;102272.88;;;16.45;52.59
64739;BME280;51175;51.186;0.276;2023-05-20T01:22:15;102263.25;;;16.44;52.69
64739;BME280;51175;51.186;0.276;2023-05-20T01:22:53;102272.06;;;16.44;52.33
64739;BME280;51175;51.186;0.276;2023-05-20T01:23:31;102269.66;;;16.43;52.38
64739;BME280;51175;51.186;0.276;2023-05-20T01:24:01;102272.31;;;16.43;52.38
64739;BME280;51175;51.186;0.276;2023-05-20T01:24:34;102270.47;;;16.43;52.64
64739;BME280;51175;51.186;0.276;2023-05-20T01:25:05;102274.16;;;16.42;52.70
64739;BME280;51175;51.186;0.276;2023-05-20T01:25:36;102272.31;;;16.43;52.78
64739;BME280;51175;51.186;0.276;2023-05-20T01:26:07;102268.06;;;16.42;52.56
64739;BME280;51175;51.186;0.276;2023-05-20T01:26:37;102272.31;;;16.43;52.75
64739;BME280;51175;51.186;0.276;2023-05-20T01:27:09;102260.06;;;16.42;52.44
64739;BME280;51175;51.186;0.276;2023-05-20T01:27:40;102268.06;;;16.42;52.43
64739;BME280;51175;51.186;0.276;2023-05-20T01:28:11;102268.06;;;16.42;52.84
64739;BME280;51175;51.186;0.276;2023-05-20T01:28:46;102263.75;;;16.41;52.71
64739;BME280;51175;51.186;0.276;2023-05-20T01:29:17;102269.09;;;16.41;52.88
64739;BME280;51175;51.186;0.276;2023-05-20T01:29:49;102269.09;;;16.41;52.81
64739;BME280;51175;51.186;0.276;2023-05-20T01:30:20;102265.63;;;16.40;52.80
64739;BME280;51175;51.186;0.276;2023-05-20T01:30:53;102262.16;;;16.40;52.94
64739;BME280;51175;51.186;0.276;2023-05-20T01:31:30;102264.81;;;16.40;52.76
64739;BME280;51175;51.186;0.276;2023-05-20T01:32:05;102258.69;;;16.39;52.67
64739;BME280;51175;51.186;0.276;2023-05-20T01:32:40;102265.63;;;16.40;52.64
64739;BME280;51175;51.186;0.276;2023-05-20T01:33:12;102264.00;;;16.39;52.81
64739;BME280;51175;51.186;0.276;2023-05-20T01:33:45;102264.00;;;16.39;52.59
64739;BME280;51175;51.186;0.276;2023-05-20T01:34:19;102254.41;;;16.38;52.69
64739;BME280;51175;51.186;0.276;2023-05-20T01:34:51;102266.94;;;16.37;53.02
64739;BME280;51175;51.186;0.276;2023-05-20T01:35:22;102259.75;;;16.38;52.77
64739;BME280;51175;51.186;0.276;2023-05-20T01:35:53;102263.22;;;16.38;52.67
64739;BME280;51175;51.186;0.276;2023-05-20T01:36:25;102264.28;;;16.37;52.98
64739;BME280;51175;51.186;0.276;2023-05-20T01:36:56;102264.28;;;16.37;52.90
64739;BME280;51175;51.186;0.276;2023-05-20T01:37:28;102266.16;;;16.37;52.97
64739;BME280;51175;51.186;0.276;2023-05-20T01:38:00;102265.34;;;16.36;52.74
64739;BME280;51175;51.186;0.276;2023-05-20T01:38:32;102263.50;;;16.37;53.10
64739;BME280;51175;51.186;0.276;2023-05-20T01:39:05;102268.81;;;16.37;52.73
64739;BME280;51175;51.186;0.276;2023-05-20T01:39:38;102265.34;;;16.36;52.72
64739;BME280;51175;51.186;0.276;2023-05-20T01:40:13;102269.84;;;16.36;52.68
64739;BME280;51175;51.186;0.276;2023-05-20T01:40:45;102267.19;;;16.36;52.94
64739;BME280;51175;51.186;0.276;2023-05-20T01:41:17;102268.25;;;16.35;52.79
64739;BME280;51175;51.186;0.276;2023-05-20T01:41:48;102269.06;;;16.35;53.06
64739;BME280;51175;51.186;0.276;2023-05-20T01:42:19;102264.00;;;16.34;52.87
64739;BME280;51175;51.186;0.276;2023-05-20T01:42:50;102262.94;;;16.35;53.04
64739;BME280;51175;51.186;0.276;2023-05-20T01:43:24;102267.44;;;16.34;52.99
64739;BME280;51175;51.186;0.276;2023-05-20T01:43:56;102264.00;;;16.34;53.08
64739;BME280;51175;51.186;0.276;2023-05-20T01:44:27;102264.78;;;16.34;53.21
64739;BME280;51175;51.186;0.276;2023-05-20T01:44:58;102261.31;;;16.34;53.07
64739;BME280;51175;51.186;0.276;2023-05-20T01:45:28;102264.00;;;16.34;52.98
64739;BME280;51175;51.186;0.276;2023-05-20T01:45:59;102263.19;;;16.33;52.91
64739;BME280;51175;51.186;0.276;2023-05-20T01:46:32;102261.31;;;16.34;53.00
64739;BME280;51175;51.186;0.276;2023-05-20T01:47:03;102260.53;;;16.33;52.97
64739;BME280;51175;51.186;0.276;2023-05-20T01:47:34;102264.00;;;16.34;52.97
64739;BME280;51175;51.186;0.276;2023-05-20T01:48:04;102259.69;;;16.33;53.13
64739;BME280;51175;51.186;0.276;2023-05-20T01:48:35;102261.56;;;16.32;53.25
64739;BME280;51175;51.186;0.276;2023-05-20T01:49:05;102261.56;;;16.32;53.00
64739;BME280;51175;51.186;0.276;2023-05-20T01:49:35;102261.56;;;16.32;53.21
64739;BME280;51175;51.186;0.276;2023-05-20T01:50:06;102258.09;;;16.32;53.15
64739;BME280;51175;51.186;0.276;2023-05-20T01:50:37;102260.78;;;16.32;53.21
64739;BME280;51175;51.186;0.276;2023-05-20T01:51:08;102265.28;;;16.31;53.24
64739;BME280;51175;51.186;0.276;2023-05-20T01:51:38;102254.63;;;16.31;53.23
64739;BME280;51175;51.186;0.276;2023-05-20T01:52:09;102259.97;;;16.31;53.08
64739;BME280;51175;51.186;0.276;2023-05-20T01:52:39;102259.97;;;16.31;53.12
64739;BME280;51175;51.186;0.276;2023-05-20T01:53:10;102261.81;;;16.31;53.09
64739;BME280;51175;51.186;0.276;2023-05-20T01:53:40;102255.69;;;16.30;53.09
64739;BME280;51175;51.186;0.276;2023-05-20T01:54:11;102258.38;;;16.30;53.26
64739;BME280;51175;51.186;0.276;2023-05-20T01:54:41;102261.81;;;16.31;53.29
64739;BME280;51175;51.186;0.276;2023-05-20T01:55:12;102261.81;;;16.31;53.08
64739;BME280;51175;51.186;0.276;2023-05-20T01:55:42;102260.22;;;16.30;53.08
64739;BME280;51175;51.186;0.276;2023-05-20T01:56:13;102258.38;;;16.30;53.23
64739;BME280;51175;51.186;0.276;2023-05-20T01:56:44;102259.16;;;16.31;53.28
64739;BME280;51175;51.186;0.276;2023-05-20T01:57:21;102261.03;;;16.30;53.32
64739;BME280;51175;51.186;0.276;2023-05-20T01:57:51;102260.22;;;16.30;53.15
64739;BME280;51175;51.186;0.276;2023-05-20T01:58:21;102254.06;;;16.29;53.17
64739;BME280;51175;51.186;0.276;2023-05-20T01:58:52;102259.41;;;16.29;53.31
64739;BME280;51175;51.186;0.276;2023-05-20T01:59:22;102260.47;;;16.28;53.40
64739;BME280;51175;51.186;0.276;2023-05-20T01:59:53;102263.94;;;16.29;53.16
64739;BME280;51175;51.186;0.276;2023-05-20T02:00:23;102264.72;;;16.29;53.12
64739;BME280;51175;51.186;0.276;2023-05-20T02:00:54;102263.13;;;16.28;53.02
64739;BME280;51175;51.186;0.276;2023-05-20T02:01:25;102263.13;;;16.28;53.18
64739;BME280;51175;51.186;0.276;2023-05-20T02:01:55;102265.00;;;16.28;53.29
64739;BME280;51175;51.186;0.276;2023-05-20T02:02:25;102262.31;;;16.28;53.21
64739;BME280;51175;51.186;0.276;2023-05-20T02:02:56;102255.38;;;16.26;53.51
64739;BME280;51175;51.186;0.276;2023-05-20T02:03:26;102258.88;;;16.27;53.59
64739;BME280;51175;51.186;0.276;2023-05-20T02:03:57;102263.38;;;16.26;53.61
64739;BME280;51175;51.186;0.276;2023-05-20T02:04:27;102260.97;;;16.25;53.56
64739;BME280;51175;51.186;0.276;2023-05-20T02:04:57;102264.19;;;16.27;53.59
64739;BME280;51175;51.186;0.276;2023-05-20T02:05:28;102260.97;;;16.25;53.45
64739;BME280;51175;51.186;0.276;2023-05-20T02:05:59;102258.31;;;16.25;53.36
64739;BME280;51175;51.186;0.276;2023-05-20T02:06:29;102258.31;;;16.25;53.47
64739;BME280;51175;51.186;0.276;2023-05-20T02:07:00;102250.31;;;16.25;53.50
64739;BME280;51175;51.186;0.276;2023-05-20T02:07:30;102246.59;;;16.26;53.50
64739;BME280;51175;51.186;0.276;2023-05-20T02:08:01;102254.84;;;16.24;53.46
64739;BME280;51175;51.186;0.276;2023-05-20T02:08:31;102257.50;;;16.24;53.66
64739;BME280;51175;51.186;0.276;2023-05-20T02:09:01;102262.03;;;16.24;53.78
64739;BME280;51175;51.186;0.276;2023-05-20T02:09:32;102248.72;;;16.24;53.50
64739;BME280;51175;51.186;0.276;2023-05-20T02:10:03;102249.75;;;16.23;53.73
64739;BME280;51175;51.186;0.276;2023-05-20T02:10:33;102255.09;;;16.23;53.28
64739;BME280;51175;51.186;0.276;2023-05-20T02:11:04;102255.09;;;16.23;53.66
64739;BME280;51175;51.186;0.276;2023-05-20T02:11:35;102252.44;;;16.23;53.70
64739;BME280;51175;51.186;0.276;2023-05-20T02:12:06;102251.63;;;16.22;53.61
64739;BME280;51175;51.186;0.276;2023-05-20T02:12:37;102249.75;;;16.23;53.51
64739;BME280;51175;51.186;0.276;2023-05-20T02:13:07;102252.44;;;16.23;53.35
64739;BME280;51175;51.186;0.276;2023-05-20T02:13:38;102254.31;;;16.22;53.49
64739;BME280;51175;51.186;0.276;2023-05-20T02:14:08;102250.81;;;16.22;53.43
64739;BME280;51175;51.186;0.276;2023-05-20T02:14:39;102244.44;;;16.23;53.38
64739;BME280;51175;51.186;0.276;2023-05-20T02:15:09;102250.81;;;16.22;53.36
64739;BME280;51175;51.186;0.276;2023-05-20T02:15:40;102250.81;;;16.22;53.46
64739;BME280;51175;51.186;0.276;2023-05-20T02:16:11;102248.16;;;16.22;53.76
64739;BME280;51175;51.186;0.276;2023-05-20T02:16:41;102249.22;;;16.21;53.56
64739;BME280;51175;51.186;0.276;2023-05-20T02:17:12;102247.34;;;16.21;53.78
64739;BME280;51175;51.186;0.276;2023-05-20T02:17:45;102244.69;;;16.21;53.63
64739;BME280;51175;51.186;0.276;2023-05-20T02:18:16;102246.56;;;16.21;53.86
64739;BME280;51175;51.186;0.276;2023-05-20T02:18:47;102250.00;;;16.21;53.78
64739;BME280;51175;51.186;0.276;2023-05-20T02:19:18;102249.22;;;16.21;53.91
64739;BME280;51175;51.186;0.276;2023-05-20T02:19:52;102238.56;;;16.21;53.74
64739;BME280;51175;51.186;0.276;2023-05-20T02:20:23;102238.56;;;16.21;53.83
64739;BME280;51175;51.186;0.276;2023-05-20T02:20:53;102248.16;;;16.22;53.68
64739;BME280;51175;51.186;0.276;2023-05-20T02:21:24;102243.91;;;16.21;53.77
64739;BME280;51175;51.186;0.276;2023-05-20T02:21:55;102242.28;;;16.20;53.65
64739;BME280;51175;51.186;0.276;2023-05-20T02:22:25;102244.94;;;16.20;53.68
64739;BME280;51175;51.186;0.276;2023-05-20T02:22:56;102243.34;;;16.19;53.86
64739;BME280;51175;51.186;0.276;2023-05-20T02:23:26;102242.28;;;16.20;54.12
64739;BME280;51175;51.186;0.276;2023-05-20T02:23:56;102247.59;;;16.20;53.76
64739;BME280;51175;51.186;0.276;2023-05-20T02:24:27;102243.34;;;16.19;53.87
64739;BME280;51175;51.186;0.276;2023-05-20T02:24:57;102244.94;;;16.20;54.08
64739;BME280;51175;51.186;0.276;2023-05-20T02:25:27;102243.34;;;16.19;54.02
64739;BME280;51175;51.186;0.276;2023-05-20T02:25:58;102243.34;;;16.19;54.01
64739;BME280;51175;51.186;0.276;2023-05-20T02:26:28;102246.00;;;16.19;54.15
64739;BME280;51175;51.186;0.276;2023-05-20T02:26:59;102239.06;;;16.18;53.88
64739;BME280;51175;51.186;0.276;2023-05-20T02:27:30;102240.66;;;16.19;53.87
64739;BME280;51175;51.186;0.276;2023-05-20T02:28:01;102238.25;;;16.17;53.89
64739;BME280;51175;51.186;0.276;2023-05-20T02:28:34;102235.59;;;16.17;54.18
64739;BME280;51175;51.186;0.276;2023-05-20T02:29:07;102234.78;;;16.17;53.90
64739;BME280;51175;51.186;0.276;2023-05-20T02:29:37;102234.78;;;16.17;54.08
64739;BME280;51175;51.186;0.276;2023-05-20T02:30:08;102230.53;;;16.16;53.82
64739;BME280;51175;51.186;0.276;2023-05-20T02:30:39;102231.34;;;16.16;54.11
64739;BME280;51175;51.186;0.276;2023-05-20T02:31:10;102228.66;;;16.16;54.13
64739;BME280;51175;51.186;0.276;2023-05-20T02:31:40;102236.66;;;16.16;53.95
64739;BME280;51175;51.186;0.276;2023-05-20T02:32:10;102232.13;;;16.17;53.93
64739;BME280;51175;51.186;0.276;2023-05-20T02:32:41;102233.19;;;16.16;54.02
64739;BME280;51175;51.186;0.276;2023-05-20T02:33:12;102233.19;;;16.16;54.01
64739;BME280;51175;51.186;0.276;2023-05-20T02:33:43;102230.53;;;16.16;54.11
64739;BME280;51175;51.186;0.276;2023-05-20T02:34:16;102227.84;;;16.16;54.20
64739;BME280;51175;51.186;0.276;2023-05-20T02:34:46;102227.84;;;16.16;54.20
64739;BME280;51175;51.186;0.276;2023-05-20T02:35:17;102227.03;;;16.15;54.31
64739;BME280;51175;51.186;0.276;2023-05-20T02:35:47;102233.19;;;16.16;54.20
64739;BME280;51175;51.186;0.276;2023-05-20T02:36:17;102236.66;;;16.16;54.10
64739;BME280;51175;51.186;0.276;2023-05-20T02:36:48;102236.66;;;16.16;54.33
64739;BME280;51175;51.186;0.276;2023-05-20T02:37:18;102231.34;;;16.16;54.42
64739;BME280;51175;51.186;0.276;2023-05-20T02:37:49;102230.53;;;16.16;54.26
64739;BME280;51175;51.186;0.276;2023-05-20T02:38:19;102232.38;;;16.15;54.32
64739;BME280;51175;51.186;0.276;2023-05-20T02:38:49;102228.94;;;16.15;54.08
64739;BME280;51175;51.186;0.276;2023-05-20T02:39:20;102231.59;;;16.15;54.35
64739;BME280;51175;51.186;0.276;2023-05-20T02:39:51;102232.38;;;16.15;54.19
64739;BME280;51175;51.186;0.276;2023-05-20T02:40:21;102232.38;;;16.15;54.10
64739;BME280;51175;51.186;0.276;2023-05-20T02:40:52;102230.53;;;16.16;54.26
64739;BME280;51175;51.186;0.276;2023-05-20T02:41:22;102233.44;;;16.14;54.48
64739;BME280;51175;51.186;0.276;2023-05-20T02:41:53;102228.94;;;16.15;54.29
64739;BME280;51175;51.186;0.276;2023-05-20T02:42:23;102234.25;;;16.15;54.38
64739;BME280;51175;51.186;0.276;2023-05-20T02:42:53;102229.19;;;16.13;54.15
64739;BME280;51175;51.186;0.276;2023-05-20T02:43:24;102230.78;;;16.14;54.31
64739;BME280;51175;51.186;0.276;2023-05-20T02:43:55;102224.63;;;16.13;54.22
64739;BME280;51175;51.186;0.276;2023-05-20T02:44:25;102231.84;;;16.13;54.35
64739;BME280;51175;51.186;0.276;2023-05-20T02:44:56;102228.38;;;16.12;54.56